sensor_id;sensor_type;location;lat;lon;timestamp;P1;durP1;ratioP1;P2;durP2;ratioP2
3712;SDS011;1872;51.406;6.856;2024-02-23T00:02:17;1.90;;;1.80;;
3712;SDS011;1872;51.406;6.856;2024-02-23T00:04:43;2.10;;;2.00;;
3712;SDS011;1872;51.406;6.856;2024-02-23T00:07:10;1.53;;;1.53;;
3712;SDS011;1872;51.406;6.856;2024-02-23T00:09:37;1.33;;;1.33;;
3712;SDS011;1872;51.406;6.856;2024-02-23T00:12:03;1.73;;;1.73;;
3712;SDS011;1872;51.406;6.856;2024-02-23T00:14:29;1.70;;;1.60;;
3712;SDS011;1872;51.406;6.856;2024-02-23T00:16:56;2.20;;;2.00;;
3712;SDS011;1872;51.406;6.856;2024-02-23T00:19:26;2.30;;;2.20;;
3712;SDS011;1872;51.406;6.856;2024-02-23T00:21:52;2.37;;;2.20;;
3712;SDS011;1872;51.406;6.856;2024-02-23T00:24:18;2.73;;;2.53;;
3712;SDS011;1872;51.406;6.856;2024-02-23T00:26:45;3.07;;;2.87;;
3712;SDS011;1872;51.406;6.856;2024-02-23T00:29:11;6.70;;;4.40;;
3712;SDS011;1872;51.406;6.856;2024-02-23T00:31:38;3.40;;;3.10;;
3712;SDS011;1872;51.406;6.856;2024-02-23T00:34:06;5.57;;;3.60;;
3712;SDS011;1872;51.406;6.856;2024-02-23T00:36:35;4.90;;;4.07;;
3712;SDS011;1872;51.406;6.856;2024-02-23T00:39:03;3.80;;;3.50;;
3712;SDS011;1872;51.406;6.856;2024-02-23T00:41:29;4.33;;;3.93;;
3712;SDS011;1872;51.406;6.856;2024-02-23T00:43:55;3.27;;;3.07;;
3712;SDS011;1872;51.406;6.856;2024-02-23T00:46:20;3.83;;;2.80;;
3712;SDS011;1872;51.406;6.856;2024-02-23T00:48:46;3.23;;;3.03;;
3712;SDS011;1872;51.406;6.856;2024-02-23T00:51:12;2.63;;;2.43;;
3712;SDS011;1872;51.406;6.856;2024-02-23T00:53:38;2.47;;;2.37;;
3712;SDS011;1872;51.406;6.856;2024-02-23T00:56:04;2.70;;;2.30;;
3712;SDS011;1872;51.406;6.856;2024-02-23T00:58:29;2.90;;;2.70;;
3712;SDS011;1872;51.406;6.856;2024-02-23T01:00:55;2.73;;;2.63;;
3712;SDS011;1872;51.406;6.856;2024-02-23T01:03:21;2.90;;;2.70;;
3712;SDS011;1872;51.406;6.856;2024-02-23T01:05:47;2.50;;;2.30;;
3712;SDS011;1872;51.406;6.856;2024-02-23T01:08:13;2.70;;;2.50;;
3712;SDS011;1872;51.406;6.856;2024-02-23T01:10:38;2.80;;;2.40;;
3712;SDS011;1872;51.406;6.856;2024-02-23T01:13:04;2.60;;;2.50;;
3712;SDS011;1872;51.406;6.856;2024-02-23T01:15:30;2.70;;;2.50;;
3712;SDS011;1872;51.406;6.856;2024-02-23T01:17:56;2.87;;;2.67;;
3712;SDS011;1872;51.406;6.856;2024-02-23T01:20:22;2.70;;;2.50;;
3712;SDS011;1872;51.406;6.856;2024-02-23T01:22:47;3.00;;;2.80;;
3712;SDS011;1872;51.406;6.856;2024-02-23T01:25:13;2.60;;;2.40;;
3712;SDS011;1872;51.406;6.856;2024-02-23T01:27:40;2.40;;;2.20;;
3712;SDS011;1872;51.406;6.856;2024-02-23T01:30:07;4.00;;;2.33;;
3712;SDS011;1872;51.406;6.856;2024-02-23T01:32:33;2.23;;;2.10;;
3712;SDS011;1872;51.406;6.856;2024-02-23T01:34:58;4.30;;;2.40;;
3712;SDS011;1872;51.406;6.856;2024-02-23T01:37:24;2.10;;;2.00;;
3712;SDS011;1872;51.406;6.856;2024-02-23T01:39:50;2.27;;;2.17;;
3712;SDS011;1872;51.406;6.856;2024-02-23T01:42:15;2.30;;;2.20;;
3712;SDS011;1872;51.406;6.856;2024-02-23T01:44:42;3.53;;;2.03;;
3712;SDS011;1872;51.406;6.856;2024-02-23T01:47:08;2.40;;;2.30;;
3712;SDS011;1872;51.406;6.856;2024-02-23T01:49:33;2.20;;;2.00;;
3712;SDS011;1872;51.406;6.856;2024-02-23T01:52:00;2.43;;;2.23;;
3712;SDS011;1872;51.406;6.856;2024-02-23T01:54:27;2.10;;;2.00;;
3712;SDS011;1872;51.406;6.856;2024-02-23T01:56:54;2.33;;;2.00;;
3712;SDS011;1872;51.406;6.856;2024-02-23T01:59:21;1.93;;;1.80;;
3712;SDS011;1872;51.406;6.856;2024-02-23T02:01:48;4.50;;;2.40;;
3712;SDS011;1872;51.406;6.856;2024-02-23T02:04:14;1.73;;;1.63;;
3712;SDS011;1872;51.406;6.856;2024-02-23T02:06:40;2.77;;;1.53;;
3712;SDS011;1872;51.406;6.856;2024-02-23T02:09:05;1.80;;;1.70;;
3712;SDS011;1872;51.406;6.856;2024-02-23T02:11:31;5.20;;;1.97;;
3712;SDS011;1872;51.406;6.856;2024-02-23T02:13:57;1.50;;;1.40;;
3712;SDS011;1872;51.406;6.856;2024-02-23T02:16:23;2.40;;;1.50;;
3712;SDS011;1872;51.406;6.856;2024-02-23T02:18:48;1.80;;;1.70;;
3712;SDS011;1872;51.406;6.856;2024-02-23T02:21:14;1.73;;;1.63;;
3712;SDS011;1872;51.406;6.856;2024-02-23T02:23:40;2.13;;;1.80;;
3712;SDS011;1872;51.406;6.856;2024-02-23T02:26:07;2.00;;;1.80;;
3712;SDS011;1872;51.406;6.856;2024-02-23T02:28:33;2.23;;;1.70;;
3712;SDS011;1872;51.406;6.856;2024-02-23T02:30:59;1.63;;;1.53;;
3712;SDS011;1872;51.406;6.856;2024-02-23T02:33:25;1.60;;;1.50;;
3712;SDS011;1872;51.406;6.856;2024-02-23T02:35:50;3.80;;;2.00;;
3712;SDS011;1872;51.406;6.856;2024-02-23T02:38:16;1.90;;;1.80;;
3712;SDS011;1872;51.406;6.856;2024-02-23T02:40:42;2.10;;;1.70;;
3712;SDS011;1872;51.406;6.856;2024-02-23T02:43:08;4.30;;;1.70;;
3712;SDS011;1872;51.406;6.856;2024-02-23T02:45:33;2.13;;;1.93;;
3712;SDS011;1872;51.406;6.856;2024-02-23T02:47:59;2.40;;;2.10;;
3712;SDS011;1872;51.406;6.856;2024-02-23T02:50:29;2.10;;;1.90;;
3712;SDS011;1872;51.406;6.856;2024-02-23T02:52:54;2.00;;;1.90;;
3712;SDS011;1872;51.406;6.856;2024-02-23T02:55:20;7.97;;;1.60;;
3712;SDS011;1872;51.406;6.856;2024-02-23T02:57:46;2.50;;;1.93;;
3712;SDS011;1872;51.406;6.856;2024-02-23T03:00:12;3.53;;;1.77;;
3712;SDS011;1872;51.406;6.856;2024-02-23T03:02:38;2.37;;;1.50;;
3712;SDS011;1872;51.406;6.856;2024-02-23T03:05:04;1.60;;;1.50;;
3712;SDS011;1872;51.406;6.856;2024-02-23T03:07:30;1.67;;;1.57;;
3712;SDS011;1872;51.406;6.856;2024-02-23T03:09:56;1.43;;;1.33;;
3712;SDS011;1872;51.406;6.856;2024-02-23T03:12:22;2.77;;;1.33;;
3712;SDS011;1872;51.406;6.856;2024-02-23T03:14:47;1.57;;;1.47;;
3712;SDS011;1872;51.406;6.856;2024-02-23T03:17:13;1.53;;;1.43;;
3712;SDS011;1872;51.406;6.856;2024-02-23T03:19:39;3.20;;;1.90;;
3712;SDS011;1872;51.406;6.856;2024-02-23T03:22:04;2.00;;;1.50;;
3712;SDS011;1872;51.406;6.856;2024-02-23T03:24:30;2.07;;;1.50;;
3712;SDS011;1872;51.406;6.856;2024-02-23T03:26:56;1.67;;;1.43;;
3712;SDS011;1872;51.406;6.856;2024-02-23T03:29:22;1.40;;;1.30;;
3712;SDS011;1872;51.406;6.856;2024-02-23T03:31:54;1.50;;;1.43;;
3712;SDS011;1872;51.406;6.856;2024-02-23T03:34:20;3.03;;;1.53;;
3712;SDS011;1872;51.406;6.856;2024-02-23T03:36:46;1.50;;;1.40;;
3712;SDS011;1872;51.406;6.856;2024-02-23T03:39:12;2.60;;;1.40;;
3712;SDS011;1872;51.406;6.856;2024-02-23T03:41:38;1.77;;;1.67;;
3712;SDS011;1872;51.406;6.856;2024-02-23T03:44:04;7.03;;;1.90;;
3712;SDS011;1872;51.406;6.856;2024-02-23T03:46:30;2.57;;;1.90;;
3712;SDS011;1872;51.406;6.856;2024-02-23T03:48:56;3.30;;;1.57;;
3712;SDS011;1872;51.406;6.856;2024-02-23T03:51:22;1.80;;;1.70;;
3712;SDS011;1872;51.406;6.856;2024-02-23T03:53:49;2.47;;;1.33;;
3712;SDS011;1872;51.406;6.856;2024-02-23T03:56:15;1.40;;;1.30;;
3712;SDS011;1872;51.406;6.856;2024-02-23T03:58:41;3.10;;;1.57;;
3712;SDS011;1872;51.406;6.856;2024-02-23T04:01:07;2.20;;;1.50;;
3712;SDS011;1872;51.406;6.856;2024-02-23T04:03:32;1.57;;;1.47;;
3712;SDS011;1872;51.406;6.856;2024-02-23T04:05:58;5.43;;;1.70;;
3712;SDS011;1872;51.406;6.856;2024-02-23T04:08:24;3.83;;;1.50;;
3712;SDS011;1872;51.406;6.856;2024-02-23T04:10:50;2.67;;;1.47;;
3712;SDS011;1872;51.406;6.856;2024-02-23T04:13:15;2.33;;;2.23;;
3712;SDS011;1872;51.406;6.856;2024-02-23T04:15:43;2.20;;;1.70;;
3712;SDS011;1872;51.406;6.856;2024-02-23T04:18:09;1.80;;;1.50;;
3712;SDS011;1872;51.406;6.856;2024-02-23T04:20:35;2.00;;;1.70;;
3712;SDS011;1872;51.406;6.856;2024-02-23T04:23:00;2.13;;;1.73;;
3712;SDS011;1872;51.406;6.856;2024-02-23T04:25:26;1.50;;;1.40;;
3712;SDS011;1872;51.406;6.856;2024-02-23T04:27:52;2.30;;;1.80;;
3712;SDS011;1872;51.406;6.856;2024-02-23T04:30:19;1.97;;;1.77;;
3712;SDS011;1872;51.406;6.856;2024-02-23T04:32:44;1.57;;;1.20;;
3712;SDS011;1872;51.406;6.856;2024-02-23T04:35:10;2.03;;;1.40;;
3712;SDS011;1872;51.406;6.856;2024-02-23T04:37:36;2.43;;;1.60;;
3712;SDS011;1872;51.406;6.856;2024-02-23T04:40:02;3.67;;;1.60;;
3712;SDS011;1872;51.406;6.856;2024-02-23T04:42:30;3.70;;;2.00;;
3712;SDS011;1872;51.406;6.856;2024-02-23T04:44:56;2.07;;;1.43;;
3712;SDS011;1872;51.406;6.856;2024-02-23T04:47:22;4.17;;;2.07;;
3712;SDS011;1872;51.406;6.856;2024-02-23T04:49:48;2.63;;;1.80;;
3712;SDS011;1872;51.406;6.856;2024-02-23T04:52:14;1.50;;;1.40;;
3712;SDS011;1872;51.406;6.856;2024-02-23T04:54:40;1.60;;;1.30;;
3712;SDS011;1872;51.406;6.856;2024-02-23T04:57:05;1.63;;;1.50;;
3712;SDS011;1872;51.406;6.856;2024-02-23T04:59:31;1.93;;;1.37;;
3712;SDS011;1872;51.406;6.856;2024-02-23T05:01:57;3.63;;;1.57;;
3712;SDS011;1872;51.406;6.856;2024-02-23T05:04:23;3.57;;;2.17;;
3712;SDS011;1872;51.406;6.856;2024-02-23T05:06:51;1.93;;;1.63;;
3712;SDS011;1872;51.406;6.856;2024-02-23T05:09:17;3.40;;;1.50;;
3712;SDS011;1872;51.406;6.856;2024-02-23T05:11:43;1.60;;;1.50;;
3712;SDS011;1872;51.406;6.856;2024-02-23T05:14:10;3.33;;;1.70;;
3712;SDS011;1872;51.406;6.856;2024-02-23T05:16:37;3.40;;;1.40;;
3712;SDS011;1872;51.406;6.856;2024-02-23T05:19:02;1.80;;;1.70;;
3712;SDS011;1872;51.406;6.856;2024-02-23T05:21:28;2.73;;;1.40;;
3712;SDS011;1872;51.406;6.856;2024-02-23T05:23:54;3.43;;;1.80;;
3712;SDS011;1872;51.406;6.856;2024-02-23T05:26:19;1.70;;;1.60;;
3712;SDS011;1872;51.406;6.856;2024-02-23T05:28:45;2.23;;;1.70;;
3712;SDS011;1872;51.406;6.856;2024-02-23T05:31:11;1.93;;;1.70;;
3712;SDS011;1872;51.406;6.856;2024-02-23T05:33:37;2.20;;;1.80;;
3712;SDS011;1872;51.406;6.856;2024-02-23T05:36:04;6.10;;;2.03;;
3712;SDS011;1872;51.406;6.856;2024-02-23T05:38:31;3.33;;;1.63;;
3712;SDS011;1872;51.406;6.856;2024-02-23T05:40:57;1.40;;;1.33;;
3712;SDS011;1872;51.406;6.856;2024-02-23T05:43:22;1.90;;;1.63;;
3712;SDS011;1872;51.406;6.856;2024-02-23T05:45:48;1.63;;;1.53;;
3712;SDS011;1872;51.406;6.856;2024-02-23T05:48:14;2.40;;;1.50;;
3712;SDS011;1872;51.406;6.856;2024-02-23T05:50:40;2.13;;;1.90;;
3712;SDS011;1872;51.406;6.856;2024-02-23T05:53:06;2.60;;;1.70;;
3712;SDS011;1872;51.406;6.856;2024-02-23T05:55:31;4.30;;;1.63;;
3712;SDS011;1872;51.406;6.856;2024-02-23T05:57:57;3.40;;;1.53;;
3712;SDS011;1872;51.406;6.856;2024-02-23T06:00:23;1.50;;;1.40;;
3712;SDS011;1872;51.406;6.856;2024-02-23T06:02:51;3.00;;;1.70;;
3712;SDS011;1872;51.406;6.856;2024-02-23T06:05:16;4.20;;;1.70;;
3712;SDS011;1872;51.406;6.856;2024-02-23T06:07:42;1.47;;;1.37;;
3712;SDS011;1872;51.406;6.856;2024-02-23T06:10:08;4.13;;;1.67;;
3712;SDS011;1872;51.406;6.856;2024-02-23T06:12:34;1.80;;;1.50;;
3712;SDS011;1872;51.406;6.856;2024-02-23T06:14:59;1.90;;;1.80;;
3712;SDS011;1872;51.406;6.856;2024-02-23T06:17:25;2.80;;;1.73;;
3712;SDS011;1872;51.406;6.856;2024-02-23T06:19:51;3.13;;;1.63;;
3712;SDS011;1872;51.406;6.856;2024-02-23T06:22:18;3.87;;;1.90;;
3712;SDS011;1872;51.406;6.856;2024-02-23T06:24:46;4.63;;;2.03;;
3712;SDS011;1872;51.406;6.856;2024-02-23T06:27:12;1.73;;;1.63;;
3712;SDS011;1872;51.406;6.856;2024-02-23T06:29:38;5.53;;;2.03;;
3712;SDS011;1872;51.406;6.856;2024-02-23T06:32:04;1.90;;;1.73;;
3712;SDS011;1872;51.406;6.856;2024-02-23T06:34:30;1.70;;;1.60;;
3712;SDS011;1872;51.406;6.856;2024-02-23T06:36:55;2.83;;;1.57;;
3712;SDS011;1872;51.406;6.856;2024-02-23T06:39:21;3.43;;;1.73;;
3712;SDS011;1872;51.406;6.856;2024-02-23T06:41:47;3.70;;;1.70;;
3712;SDS011;1872;51.406;6.856;2024-02-23T06:44:13;1.93;;;1.83;;
3712;SDS011;1872;51.406;6.856;2024-02-23T06:46:38;2.23;;;1.70;;
3712;SDS011;1872;51.406;6.856;2024-02-23T06:49:04;3.63;;;2.10;;
3712;SDS011;1872;51.406;6.856;2024-02-23T06:51:31;2.00;;;1.57;;
3712;SDS011;1872;51.406;6.856;2024-02-23T06:53:57;2.30;;;2.00;;
3712;SDS011;1872;51.406;6.856;2024-02-23T06:56:22;5.00;;;1.60;;
3712;SDS011;1872;51.406;6.856;2024-02-23T06:58:48;2.80;;;1.40;;
3712;SDS011;1872;51.406;6.856;2024-02-23T07:01:14;3.97;;;2.00;;
3712;SDS011;1872;51.406;6.856;2024-02-23T07:03:40;1.83;;;1.67;;
3712;SDS011;1872;51.406;6.856;2024-02-23T07:06:10;3.00;;;1.60;;
3712;SDS011;1872;51.406;6.856;2024-02-23T07:08:36;3.20;;;1.60;;
3712;SDS011;1872;51.406;6.856;2024-02-23T07:11:02;3.33;;;2.10;;
3712;SDS011;1872;51.406;6.856;2024-02-23T07:13:28;4.83;;;2.27;;
3712;SDS011;1872;51.406;6.856;2024-02-23T07:15:55;3.17;;;1.90;;
3712;SDS011;1872;51.406;6.856;2024-02-23T07:18:21;2.57;;;1.73;;
3712;SDS011;1872;51.406;6.856;2024-02-23T07:20:47;3.33;;;1.83;;
3712;SDS011;1872;51.406;6.856;2024-02-23T07:23:12;4.13;;;2.03;;
3712;SDS011;1872;51.406;6.856;2024-02-23T07:25:41;2.40;;;1.70;;
3712;SDS011;1872;51.406;6.856;2024-02-23T07:28:07;3.33;;;2.17;;
3712;SDS011;1872;51.406;6.856;2024-02-23T07:30:33;2.00;;;1.43;;
3712;SDS011;1872;51.406;6.856;2024-02-23T07:33:00;2.70;;;1.97;;
3712;SDS011;1872;51.406;6.856;2024-02-23T07:35:26;3.93;;;1.90;;
3712;SDS011;1872;51.406;6.856;2024-02-23T07:37:52;1.90;;;1.80;;
3712;SDS011;1872;51.406;6.856;2024-02-23T07:40:17;1.90;;;1.73;;
3712;SDS011;1872;51.406;6.856;2024-02-23T07:42:43;2.40;;;1.60;;
3712;SDS011;1872;51.406;6.856;2024-02-23T07:45:09;2.77;;;2.10;;
3712;SDS011;1872;51.406;6.856;2024-02-23T07:47:35;2.30;;;2.10;;
3712;SDS011;1872;51.406;6.856;2024-02-23T07:50:02;2.83;;;1.67;;
3712;SDS011;1872;51.406;6.856;2024-02-23T07:52:28;1.83;;;1.43;;
3712;SDS011;1872;51.406;6.856;2024-02-23T07:54:53;2.43;;;1.80;;
3712;SDS011;1872;51.406;6.856;2024-02-23T07:57:19;1.87;;;1.70;;
3712;SDS011;1872;51.406;6.856;2024-02-23T07:59:45;2.07;;;1.70;;
3712;SDS011;1872;51.406;6.856;2024-02-23T08:02:11;5.30;;;1.77;;
3712;SDS011;1872;51.406;6.856;2024-02-23T08:04:37;1.60;;;1.50;;
3712;SDS011;1872;51.406;6.856;2024-02-23T08:07:03;2.00;;;1.60;;
3712;SDS011;1872;51.406;6.856;2024-02-23T08:09:29;3.10;;;1.73;;
3712;SDS011;1872;51.406;6.856;2024-02-23T08:11:55;3.43;;;1.70;;
3712;SDS011;1872;51.406;6.856;2024-02-23T08:14:21;2.60;;;1.70;;
3712;SDS011;1872;51.406;6.856;2024-02-23T08:16:46;2.83;;;2.03;;
3712;SDS011;1872;51.406;6.856;2024-02-23T08:19:12;2.37;;;1.53;;
3712;SDS011;1872;51.406;6.856;2024-02-23T08:21:38;4.00;;;1.80;;
3712;SDS011;1872;51.406;6.856;2024-02-23T08:24:04;2.40;;;1.67;;
3712;SDS011;1872;51.406;6.856;2024-02-23T08:26:30;4.63;;;3.63;;
3712;SDS011;1872;51.406;6.856;2024-02-23T08:28:56;3.13;;;1.80;;
3712;SDS011;1872;51.406;6.856;2024-02-23T08:31:22;2.80;;;1.70;;
3712;SDS011;1872;51.406;6.856;2024-02-23T08:33:47;1.87;;;1.60;;
3712;SDS011;1872;51.406;6.856;2024-02-23T08:36:13;4.83;;;1.80;;
3712;SDS011;1872;51.406;6.856;2024-02-23T08:38:39;1.80;;;1.50;;
3712;SDS011;1872;51.406;6.856;2024-02-23T08:41:04;3.53;;;1.70;;
3712;SDS011;1872;51.406;6.856;2024-02-23T08:43:30;1.80;;;1.63;;
3712;SDS011;1872;51.406;6.856;2024-02-23T08:45:56;4.70;;;1.63;;
3712;SDS011;1872;51.406;6.856;2024-02-23T08:48:21;3.03;;;1.90;;
3712;SDS011;1872;51.406;6.856;2024-02-23T08:50:47;1.90;;;1.80;;
3712;SDS011;1872;51.406;6.856;2024-02-23T08:53:13;3.20;;;1.77;;
3712;SDS011;1872;51.406;6.856;2024-02-23T08:55:39;2.20;;;1.43;;
3712;SDS011;1872;51.406;6.856;2024-02-23T08:58:04;5.40;;;1.73;;
3712;SDS011;1872;51.406;6.856;2024-02-23T09:00:31;3.00;;;1.90;;
3712;SDS011;1872;51.406;6.856;2024-02-23T09:02:57;3.40;;;1.67;;
3712;SDS011;1872;51.406;6.856;2024-02-23T09:05:23;3.57;;;1.73;;
3712;SDS011;1872;51.406;6.856;2024-02-23T09:07:48;2.70;;;1.30;;
3712;SDS011;1872;51.406;6.856;2024-02-23T09:10:14;3.33;;;1.50;;
3712;SDS011;1872;51.406;6.856;2024-02-23T09:12:40;2.30;;;1.60;;
3712;SDS011;1872;51.406;6.856;2024-02-23T09:15:06;4.80;;;2.30;;
3712;SDS011;1872;51.406;6.856;2024-02-23T09:17:32;1.73;;;1.27;;
3712;SDS011;1872;51.406;6.856;2024-02-23T09:19:58;3.73;;;1.90;;
3712;SDS011;1872;51.406;6.856;2024-02-23T09:22:24;2.10;;;1.90;;
3712;SDS011;1872;51.406;6.856;2024-02-23T09:24:49;1.80;;;1.50;;
3712;SDS011;1872;51.406;6.856;2024-02-23T09:27:15;1.73;;;1.40;;
3712;SDS011;1872;51.406;6.856;2024-02-23T09:29:41;1.80;;;1.70;;
3712;SDS011;1872;51.406;6.856;2024-02-23T09:32:07;1.50;;;1.40;;
3712;SDS011;1872;51.406;6.856;2024-02-23T09:34:33;1.70;;;1.60;;
3712;SDS011;1872;51.406;6.856;2024-02-23T09:36:59;1.90;;;1.50;;
3712;SDS011;1872;51.406;6.856;2024-02-23T09:39:24;3.00;;;1.90;;
3712;SDS011;1872;51.406;6.856;2024-02-23T09:41:55;1.53;;;1.43;;
3712;SDS011;1872;51.406;6.856;2024-02-23T09:44:22;3.67;;;1.73;;
3712;SDS011;1872;51.406;6.856;2024-02-23T09:46:48;1.60;;;1.50;;
3712;SDS011;1872;51.406;6.856;2024-02-23T09:49:14;2.27;;;1.70;;
3712;SDS011;1872;51.406;6.856;2024-02-23T09:51:41;2.20;;;1.43;;
3712;SDS011;1872;51.406;6.856;2024-02-23T09:54:07;4.87;;;1.63;;
3712;SDS011;1872;51.406;6.856;2024-02-23T09:56:33;1.37;;;1.27;;
3712;SDS011;1872;51.406;6.856;2024-02-23T09:59:02;5.33;;;1.87;;
3712;SDS011;1872;51.406;6.856;2024-02-23T10:01:29;2.10;;;1.57;;
3712;SDS011;1872;51.406;6.856;2024-02-23T10:04:00;3.80;;;1.60;;
3712;SDS011;1872;51.406;6.856;2024-02-23T10:06:28;1.90;;;1.70;;
3712;SDS011;1872;51.406;6.856;2024-02-23T10:08:54;2.87;;;1.70;;
3712;SDS011;1872;51.406;6.856;2024-02-23T10:11:20;2.90;;;1.60;;
3712;SDS011;1872;51.406;6.856;2024-02-23T10:13:49;2.50;;;1.43;;
3712;SDS011;1872;51.406;6.856;2024-02-23T10:16:16;3.17;;;1.50;;
3712;SDS011;1872;51.406;6.856;2024-02-23T10:18:43;2.00;;;1.67;;
3712;SDS011;1872;51.406;6.856;2024-02-23T10:21:08;2.03;;;1.83;;
3712;SDS011;1872;51.406;6.856;2024-02-23T10:23:34;2.20;;;1.50;;
3712;SDS011;1872;51.406;6.856;2024-02-23T10:26:00;4.10;;;1.80;;
3712;SDS011;1872;51.406;6.856;2024-02-23T10:28:25;1.50;;;1.40;;
3712;SDS011;1872;51.406;6.856;2024-02-23T10:30:52;1.90;;;1.77;;
3712;SDS011;1872;51.406;6.856;2024-02-23T10:33:19;1.80;;;1.70;;
3712;SDS011;1872;51.406;6.856;2024-02-23T10:35:47;4.50;;;1.33;;
3712;SDS011;1872;51.406;6.856;2024-02-23T10:38:18;2.87;;;1.40;;
3712;SDS011;1872;51.406;6.856;2024-02-23T10:40:46;1.47;;;1.37;;
3712;SDS011;1872;51.406;6.856;2024-02-23T10:43:19;1.27;;;1.17;;
3712;SDS011;1872;51.406;6.856;2024-02-23T10:45:48;1.50;;;1.40;;
3712;SDS011;1872;51.406;6.856;2024-02-23T10:48:14;1.20;;;1.10;;
3712;SDS011;1872;51.406;6.856;2024-02-23T10:50:40;3.60;;;1.57;;
3712;SDS011;1872;51.406;6.856;2024-02-23T10:53:09;4.40;;;1.30;;
3712;SDS011;1872;51.406;6.856;2024-02-23T10:55:37;2.10;;;1.23;;
3712;SDS011;1872;51.406;6.856;2024-02-23T10:58:04;1.90;;;1.47;;
3712;SDS011;1872;51.406;6.856;2024-02-23T11:00:36;1.50;;;1.40;;
3712;SDS011;1872;51.406;6.856;2024-02-23T11:03:02;2.53;;;1.60;;
3712;SDS011;1872;51.406;6.856;2024-02-23T11:05:29;4.83;;;1.70;;
3712;SDS011;1872;51.406;6.856;2024-02-23T11:07:56;1.53;;;1.43;;
3712;SDS011;1872;51.406;6.856;2024-02-23T11:10:22;1.20;;;1.20;;
3712;SDS011;1872;51.406;6.856;2024-02-23T11:12:58;3.90;;;1.30;;
3712;SDS011;1872;51.406;6.856;2024-02-23T11:15:32;2.20;;;1.50;;
3712;SDS011;1872;51.406;6.856;2024-02-23T11:18:51;1.50;;;1.40;;
3712;SDS011;1872;51.406;6.856;2024-02-23T11:21:03;2.47;;;1.30;;
3712;SDS011;1872;51.406;6.856;2024-02-23T11:27:01;2.80;;;1.53;;
3712;SDS011;1872;51.406;6.856;2024-02-23T11:29:34;3.23;;;1.67;;
3712;SDS011;1872;51.406;6.856;2024-02-23T11:32:02;2.90;;;2.50;;
3712;SDS011;1872;51.406;6.856;2024-02-23T11:34:29;4.73;;;1.63;;
3712;SDS011;1872;51.406;6.856;2024-02-23T11:36:56;1.40;;;1.23;;
3712;SDS011;1872;51.406;6.856;2024-02-23T11:39:23;3.57;;;1.60;;
3712;SDS011;1872;51.406;6.856;2024-02-23T11:41:49;1.90;;;1.50;;
3712;SDS011;1872;51.406;6.856;2024-02-23T11:44:15;5.32;;;1.60;;
3712;SDS011;1872;51.406;6.856;2024-02-23T11:46:45;7.70;;;1.20;;
3712;SDS011;1872;51.406;6.856;2024-02-23T11:49:12;2.50;;;1.30;;
3712;SDS011;1872;51.406;6.856;2024-02-23T11:51:39;1.60;;;1.50;;
3712;SDS011;1872;51.406;6.856;2024-02-23T11:54:05;1.57;;;1.27;;
3712;SDS011;1872;51.406;6.856;2024-02-23T11:56:31;4.40;;;1.43;;
3712;SDS011;1872;51.406;6.856;2024-02-23T11:58:57;1.73;;;1.43;;
3712;SDS011;1872;51.406;6.856;2024-02-23T12:01:23;2.03;;;1.67;;
3712;SDS011;1872;51.406;6.856;2024-02-23T12:03:49;1.47;;;1.37;;
3712;SDS011;1872;51.406;6.856;2024-02-23T12:06:15;2.80;;;1.30;;
3712;SDS011;1872;51.406;6.856;2024-02-23T12:08:41;2.20;;;1.30;;
3712;SDS011;1872;51.406;6.856;2024-02-23T12:11:07;1.50;;;1.40;;
3712;SDS011;1872;51.406;6.856;2024-02-23T12:13:34;2.83;;;1.67;;
3712;SDS011;1872;51.406;6.856;2024-02-23T12:16:01;2.20;;;1.80;;
3712;SDS011;1872;51.406;6.856;2024-02-23T12:18:27;6.57;;;1.47;;
3712;SDS011;1872;51.406;6.856;2024-02-23T12:20:58;2.70;;;1.40;;
3712;SDS011;1872;51.406;6.856;2024-02-23T12:23:26;2.67;;;1.37;;
3712;SDS011;1872;51.406;6.856;2024-02-23T12:25:58;1.30;;;1.20;;
3712;SDS011;1872;51.406;6.856;2024-02-23T12:28:25;1.70;;;1.23;;
3712;SDS011;1872;51.406;6.856;2024-02-23T12:31:00;3.83;;;1.30;;
3712;SDS011;1872;51.406;6.856;2024-02-23T12:33:31;2.53;;;1.77;;
3712;SDS011;1872;51.406;6.856;2024-02-23T12:35:58;3.43;;;2.50;;
3712;SDS011;1872;51.406;6.856;2024-02-23T12:38:24;1.70;;;1.50;;
3712;SDS011;1872;51.406;6.856;2024-02-23T12:40:50;1.70;;;1.50;;
3712;SDS011;1872;51.406;6.856;2024-02-23T12:43:16;2.23;;;1.53;;
3712;SDS011;1872;51.406;6.856;2024-02-23T12:45:43;2.03;;;1.50;;
3712;SDS011;1872;51.406;6.856;2024-02-23T12:48:14;1.60;;;1.50;;
3712;SDS011;1872;51.406;6.856;2024-02-23T12:50:41;4.40;;;1.60;;
3712;SDS011;1872;51.406;6.856;2024-02-23T12:53:08;5.10;;;1.80;;
3712;SDS011;1872;51.406;6.856;2024-02-23T12:55:35;1.50;;;1.33;;
3712;SDS011;1872;51.406;6.856;2024-02-23T12:58:02;1.60;;;1.50;;
3712;SDS011;1872;51.406;6.856;2024-02-23T13:00:28;1.50;;;1.40;;
3712;SDS011;1872;51.406;6.856;2024-02-23T13:02:53;2.40;;;1.60;;
3712;SDS011;1872;51.406;6.856;2024-02-23T13:05:19;2.03;;;1.40;;
3712;SDS011;1872;51.406;6.856;2024-02-23T13:07:45;1.47;;;1.30;;
3712;SDS011;1872;51.406;6.856;2024-02-23T13:10:12;3.23;;;1.23;;
3712;SDS011;1872;51.406;6.856;2024-02-23T13:12:38;1.40;;;1.40;;
3712;SDS011;1872;51.406;6.856;2024-02-23T13:15:04;4.87;;;1.70;;
3712;SDS011;1872;51.406;6.856;2024-02-23T13:17:30;1.50;;;1.40;;
3712;SDS011;1872;51.406;6.856;2024-02-23T13:19:55;3.93;;;1.60;;
3712;SDS011;1872;51.406;6.856;2024-02-23T13:22:21;4.80;;;1.87;;
3712;SDS011;1872;51.406;6.856;2024-02-23T13:24:47;2.83;;;1.47;;
3712;SDS011;1872;51.406;6.856;2024-02-23T13:27:12;1.53;;;1.37;;
3712;SDS011;1872;51.406;6.856;2024-02-23T13:29:38;2.13;;;1.43;;
3712;SDS011;1872;51.406;6.856;2024-02-23T13:32:04;2.70;;;1.53;;
3712;SDS011;1872;51.406;6.856;2024-02-23T13:34:30;1.60;;;1.50;;
3712;SDS011;1872;51.406;6.856;2024-02-23T13:36:55;2.10;;;1.20;;
3712;SDS011;1872;51.406;6.856;2024-02-23T13:39:21;3.53;;;1.70;;
3712;SDS011;1872;51.406;6.856;2024-02-23T13:41:47;3.90;;;1.70;;
3712;SDS011;1872;51.406;6.856;2024-02-23T13:44:12;2.23;;;1.73;;
3712;SDS011;1872;51.406;6.856;2024-02-23T13:46:38;1.40;;;1.30;;
3712;SDS011;1872;51.406;6.856;2024-02-23T13:49:05;1.53;;;1.43;;
3712;SDS011;1872;51.406;6.856;2024-02-23T13:51:32;2.93;;;1.50;;
3712;SDS011;1872;51.406;6.856;2024-02-23T13:53:58;3.67;;;1.70;;
3712;SDS011;1872;51.406;6.856;2024-02-23T13:56:24;2.93;;;1.87;;
3712;SDS011;1872;51.406;6.856;2024-02-23T13:58:50;1.50;;;1.40;;
3712;SDS011;1872;51.406;6.856;2024-02-23T14:01:16;1.87;;;1.77;;
3712;SDS011;1872;51.406;6.856;2024-02-23T14:03:42;1.63;;;1.43;;
3712;SDS011;1872;51.406;6.856;2024-02-23T14:06:08;3.10;;;2.23;;
3712;SDS011;1872;51.406;6.856;2024-02-23T14:08:34;2.10;;;1.50;;
3712;SDS011;1872;51.406;6.856;2024-02-23T14:11:02;2.67;;;1.70;;
3712;SDS011;1872;51.406;6.856;2024-02-23T14:13:31;2.47;;;1.63;;
3712;SDS011;1872;51.406;6.856;2024-02-23T14:15:57;1.90;;;1.70;;
3712;SDS011;1872;51.406;6.856;2024-02-23T14:18:23;1.60;;;1.50;;
3712;SDS011;1872;51.406;6.856;2024-02-23T14:20:49;1.73;;;1.40;;
3712;SDS011;1872;51.406;6.856;2024-02-23T14:23:17;2.07;;;1.50;;
3712;SDS011;1872;51.406;6.856;2024-02-23T14:25:43;1.60;;;1.40;;
3712;SDS011;1872;51.406;6.856;2024-02-23T14:28:09;1.63;;;1.37;;
3712;SDS011;1872;51.406;6.856;2024-02-23T14:30:35;1.70;;;1.60;;
3712;SDS011;1872;51.406;6.856;2024-02-23T14:33:01;1.80;;;1.20;;
3712;SDS011;1872;51.406;6.856;2024-02-23T14:35:26;3.30;;;2.40;;
3712;SDS011;1872;51.406;6.856;2024-02-23T14:37:52;1.70;;;1.60;;
3712;SDS011;1872;51.406;6.856;2024-02-23T14:40:18;3.13;;;1.50;;
3712;SDS011;1872;51.406;6.856;2024-02-23T14:42:44;3.07;;;1.40;;
3712;SDS011;1872;51.406;6.856;2024-02-23T14:45:10;1.30;;;1.30;;
3712;SDS011;1872;51.406;6.856;2024-02-23T14:47:38;1.00;;;1.00;;
3712;SDS011;1872;51.406;6.856;2024-02-23T14:50:04;2.30;;;1.30;;
3712;SDS011;1872;51.406;6.856;2024-02-23T14:52:31;1.50;;;1.40;;
3712;SDS011;1872;51.406;6.856;2024-02-23T14:54:56;1.23;;;1.23;;
3712;SDS011;1872;51.406;6.856;2024-02-23T14:57:22;1.53;;;1.43;;
3712;SDS011;1872;51.406;6.856;2024-02-23T14:59:48;1.50;;;1.40;;
3712;SDS011;1872;51.406;6.856;2024-02-23T15:02:21;1.43;;;1.33;;
3712;SDS011;1872;51.406;6.856;2024-02-23T15:04:47;1.43;;;1.30;;
3712;SDS011;1872;51.406;6.856;2024-02-23T15:07:13;2.07;;;1.60;;
3712;SDS011;1872;51.406;6.856;2024-02-23T15:09:39;4.10;;;1.40;;
3712;SDS011;1872;51.406;6.856;2024-02-23T15:12:05;1.50;;;1.40;;
3712;SDS011;1872;51.406;6.856;2024-02-23T15:14:31;1.60;;;1.50;;